Time;durP1;ratioP1;P1;durP2;ratioP2;P2;SDS_P1;SDS_P2;PMS_P1;PMS_P2;Temp;Humidity;BMP_temperature;BMP_pressure;BME280_temperature;BME280_humidity;BME280_pressure;Samples;Min_cycle;Max_cycle;Signal;HPM_P1;HPM_P2
2022/03/03 00:02:17;;;;;;;;;;;;;;;;;;5078954;28;20405;-81
2022/03/03 00:04:42;;;;;;;;;;;;;;;;;;5079819;28;19921;-81
2022/03/03 00:07:07;;;;;;;;;;;;;;;;;;5078308;28;19912;-81
2022/03/03 00:09:33;;;;;;;;;;;;;;;;;;5078198;28;19923;-81
2022/03/03 00:11:58;;;;;;;;;;;;;;;;;;5079349;28;20263;-81
2022/03/03 00:14:23;;;;;;;;;;;;;;;;;;5078034;28;19922;-81
2022/03/03 00:16:49;;;;;;;;;;;;;;;;;;5079649;28;19916;-81
2022/03/03 00:19:14;;;;;;;;;;;;;;;;;;5078472;28;19917;-81
2022/03/03 00:21:40;;;;;;;;;;;;;;;;;;5077667;28;20386;-81
2022/03/03 00:24:05;;;;;;;;;;;;;;;;;;5078600;28;20370;-81
2022/03/03 00:26:31;;;;;;;;;;;;;;;;;;5082012;28;19978;-82
2022/03/03 00:28:56;;;;;;;;;;;;;;;;;;5081375;28;19920;-82
2022/03/03 00:31:23;;;;;;;;;;;;;;;;;;5081133;28;19917;-82
2022/03/03 00:33:48;;;;;;;;;;;;;;;;;;5081731;28;19916;-82
2022/03/03 00:36:13;;;;;;;;;;;;;;;;;;5082230;28;19986;-82
2022/03/03 00:38:38;;;;;;;;;;;;;;;;;;5083180;28;19923;-81
2022/03/03 00:41:04;;;;;;;;;;;;;;;;;;5083209;28;19948;-82
2022/03/03 00:43:29;;;;;;;;;;;;;;;;;;5084957;28;19916;-82
2022/03/03 00:45:55;;;;;;;;;;;;;;;;;;5106546;28;19916;-82
2022/03/03 00:48:20;;;;;;;;;;;;;;;;;;5103706;28;20289;-81
2022/03/03 00:50:46;;;;;;;;;;;;;;;;;;5085047;28;19917;-82
2022/03/03 00:53:11;;;;;;;;;;;;;;;;;;5082169;28;19920;-82
2022/03/03 00:55:36;;;;;;;;;;;;;;;;;;5081938;28;19921;-81
2022/03/03 00:58:03;;;;;;;;;;;;;;;;;;5080781;28;20023;-81
2022/03/03 01:00:28;;;;;;;;;;;;;;;;;;5088725;28;19938;-82
2022/03/03 01:02:53;;;;;;;;;;;;;;;;;;5102034;28;19998;-81
2022/03/03 01:05:19;;;;;;;;;;;;;;;;;;5102941;28;19943;-83
2022/03/03 01:07:44;;;;;;;;;;;;;;;;;;5103287;28;19916;-83
2022/03/03 01:10:10;;;;;;;;;;;;;;;;;;5102383;28;19916;-83
2022/03/03 01:12:36;;;;;;;;;;;;;;;;;;5102459;28;19917;-83
2022/03/03 01:15:03;;;;;;;;;;;;;;;;;;5101074;28;19916;-82
2022/03/03 01:17:28;;;;;;;;;;;;;;;;;;5101500;28;19955;-82
2022/03/03 01:19:54;;;;;;;;;;;;;;;;;;5083255;28;19923;-82
2022/03/03 01:22:19;;;;;;;;;;;;;;;;;;5082371;28;19916;-82
2022/03/03 01:24:45;;;;;;;;;;;;;;;;;;5082241;28;19920;-82
2022/03/03 01:27:11;;;;;;;;;;;;;;;;;;5082346;28;20022;-82
2022/03/03 01:29:36;;;;;;;;;;;;;;;;;;5080909;28;19923;-82
2022/03/03 01:32:02;;;;;;;;;;;;;;;;;;5081667;28;19923;-82
2022/03/03 01:34:27;;;;;;;;;;;;;;;;;;5081403;28;19923;-82
2022/03/03 01:36:52;;;;;;;;;;;;;;;;;;5080099;28;19916;-82
2022/03/03 01:39:18;;;;;;;;;;;;;;;;;;5081156;28;19916;-82
2022/03/03 01:41:43;;;;;;;;;;;;;;;;;;5081281;28;19920;-82
2022/03/03 01:44:08;;;;;;;;;;;;;;;;;;5080481;28;19927;-82
2022/03/03 01:46:34;;;;;;;;;;;;;;;;;;5079685;28;19916;-82
2022/03/03 01:48:59;;;;;;;;;;;;;;;;;;5062963;28;19920;-82
2022/03/03 01:51:33;;;;;;;;;;;;;;;;;;5138393;27;19911;-81
2022/03/03 01:53:58;;;;;;;;;;;;;;;;;;5138207;27;19972;-81
2022/03/03 01:56:23;;;;;;;;;;;;;;;;;;5129595;27;19920;-81
2022/03/03 01:58:49;;;;;;;;;;;;;;;;;;5119075;28;19923;-82
2022/03/03 02:01:16;;;;;;;;;;;;;;;;;;5117568;28;19923;-82
2022/03/03 02:03:41;;;;;;;;;;;;;;;;;;5119324;28;19916;-82
2022/03/03 02:06:06;;;;;;;;;;;;;;;;;;5117989;28;20282;-82
2022/03/03 02:08:32;;;;;;;;;;;;;;;;;;5118060;28;19920;-81
2022/03/03 02:10:57;;;;;;;;;;;;;;;;;;5098608;28;20393;-83
2022/03/03 02:13:23;;;;;;;;;;;;;;;;;;5115455;28;19922;-81
2022/03/03 02:15:52;;;;;;;;;;;;;;;;;;5116833;28;19916;-82
2022/03/03 02:18:17;;;;;;;;;;;;;;;;;;5122864;27;20280;-81
2022/03/03 02:20:43;;;;;;;;;;;;;;;;;;5129354;27;19922;-81
2022/03/03 02:23:08;;;;;;;;;;;;;;;;;;5134670;27;19986;-81
2022/03/03 02:25:33;;;;;;;;;;;;;;;;;;5133679;27;20331;-82
2022/03/03 02:27:59;;;;;;;;;;;;;;;;;;5136155;27;20334;-81
2022/03/03 02:30:24;;;;;;;;;;;;;;;;;;5134417;28;19919;-82
2022/03/03 02:32:50;;;;;;;;;;;;;;;;;;5135505;27;19911;-82
2022/03/03 02:35:15;;;;;;;;;;;;;;;;;;5135460;27;19920;-81
2022/03/03 02:37:42;;;;;;;;;;;;;;;;;;5135404;27;19944;-81
2022/03/03 02:40:09;;;;;;;;;;;;;;;;;;5135119;27;19916;-81
2022/03/03 02:42:34;;;;;;;;;;;;;;;;;;5140718;27;19919;-82
2022/03/03 02:45:01;;;;;;;;;;;;;;;;;;5155602;27;20283;-82
2022/03/03 02:47:27;;;;;;;;;;;;;;;;;;5155404;27;20381;-82
2022/03/03 02:49:52;;;;;;;;;;;;;;;;;;5136698;27;19927;-81
2022/03/03 02:52:17;;;;;;;;;;;;;;;;;;5155347;27;19922;-81
2022/03/03 02:54:42;;;;;;;;;;;;;;;;;;5153829;27;19915;-80
2022/03/03 02:59:51;;;;;;;;;;;;;;;;;;5155353;27;19921;-83
2022/03/03 03:02:17;;;;;;;;;;;;;;;;;;5144838;27;19950;-84
2022/03/03 03:04:43;;;;;;;;;;;;;;;;;;5139701;27;20380;-83
2022/03/03 03:07:08;;;;;;;;;;;;;;;;;;5140682;27;19919;-81
2022/03/03 03:09:33;;;;;;;;;;;;;;;;;;5139265;27;19923;-81
2022/03/03 03:11:58;;;;;;;;;;;;;;;;;;5139433;27;19969;-81
2022/03/03 03:14:25;;;;;;;;;;;;;;;;;;5138840;27;20388;-82
2022/03/03 03:16:50;;;;;;;;;;;;;;;;;;5138465;27;19916;-77
2022/03/03 03:19:16;;;;;;;;;;;;;;;;;;5141183;27;20337;-80
2022/03/03 03:21:41;;;;;;;;;;;;;;;;;;5140362;27;19963;-80
2022/03/03 03:24:06;;;;;;;;;;;;;;;;;;5140607;27;19916;-81
2022/03/03 03:26:32;;;;;;;;;;;;;;;;;;5140708;27;20406;-80
2022/03/03 03:28:57;;;;;;;;;;;;;;;;;;5141333;27;19915;-81
2022/03/03 03:31:22;;;;;;;;;;;;;;;;;;5144443;27;19916;-81
2022/03/03 03:33:47;;;;;;;;;;;;;;;;;;5143390;27;19915;-80
2022/03/03 03:36:13;;;;;;;;;;;;;;;;;;5142055;27;19919;-80
2022/03/03 03:38:38;;;;;;;;;;;;;;;;;;5141780;27;19941;-80
2022/03/03 03:41:04;;;;;;;;;;;;;;;;;;5142138;27;20398;-80
2022/03/03 03:43:29;;;;;;;;;;;;;;;;;;5140502;27;19962;-79
2022/03/03 03:45:55;;;;;;;;;;;;;;;;;;5140556;27;19923;-80
2022/03/03 03:48:20;;;;;;;;;;;;;;;;;;5141616;27;19919;-80
2022/03/03 03:50:45;;;;;;;;;;;;;;;;;;5140875;27;19919;-78
2022/03/03 03:53:10;;;;;;;;;;;;;;;;;;5129274;27;20867;-77
2022/03/03 03:55:36;;;;;;;;;;;;;;;;;;5096406;28;19915;-77
2022/03/03 03:58:02;;;;;;;;;;;;;;;;;;5096428;28;19926;-78
2022/03/03 04:00:27;;;;;;;;;;;;;;;;;;5099035;28;20286;-81
2022/03/03 04:02:53;;;;;;;;;;;;;;;;;;5096883;28;19970;-75
2022/03/03 04:05:18;;;;;;;;;;;;;;;;;;5095447;28;19962;-75
2022/03/03 04:07:43;;;;;;;;;;;;;;;;;;5095658;28;20010;-75
2022/03/03 04:10:09;;;;;;;;;;;;;;;;;;5095018;28;19920;-75
2022/03/03 04:12:35;;;;;;;;;;;;;;;;;;5103411;28;19924;-75
2022/03/03 04:15:00;;;;;;;;;;;;;;;;;;5115134;28;19923;-75
2022/03/03 04:17:25;;;;;;;;;;;;;;;;;;5115458;28;20350;-75
2022/03/03 04:19:51;;;;;;;;;;;;;;;;;;5115659;28;20384;-75
2022/03/03 04:22:16;;;;;;;;;;;;;;;;;;5115722;28;19977;-75
2022/03/03 04:24:42;;;;;;;;;;;;;;;;;;5115750;28;20254;-75
2022/03/03 04:27:07;;;;;;;;;;;;;;;;;;5115226;28;19919;-75
2022/03/03 04:29:33;;;;;;;;;;;;;;;;;;5114143;28;19920;-75
2022/03/03 04:31:58;;;;;;;;;;;;;;;;;;5115442;28;20377;-75
2022/03/03 04:34:24;;;;;;;;;;;;;;;;;;5115546;28;19919;-75
2022/03/03 04:36:49;;;;;;;;;;;;;;;;;;5115453;28;20251;-75
2022/03/03 04:39:15;;;;;;;;;;;;;;;;;;5115318;28;19970;-75
2022/03/03 04:41:40;;;;;;;;;;;;;;;;;;5114499;28;19969;-76
2022/03/03 04:44:06;;;;;;;;;;;;;;;;;;5115140;28;19915;-75
2022/03/03 04:46:31;;;;;;;;;;;;;;;;;;5115320;28;19916;-75
2022/03/03 04:48:59;;;;;;;;;;;;;;;;;;5115235;28;19922;-75
2022/03/03 04:51:25;;;;;;;;;;;;;;;;;;5114886;28;19930;-75
2022/03/03 04:53:50;;;;;;;;;;;;;;;;;;5114428;28;19916;-75
2022/03/03 04:56:16;;;;;;;;;;;;;;;;;;5114583;28;20002;-75
2022/03/03 04:58:42;;;;;;;;;;;;;;;;;;5114729;28;19923;-75
2022/03/03 05:01:07;;;;;;;;;;;;;;;;;;5114655;28;19916;-75
2022/03/03 05:03:32;;;;;;;;;;;;;;;;;;5113795;28;19922;-75
2022/03/03 05:05:57;;;;;;;;;;;;;;;;;;5115027;27;19962;-75
2022/03/03 05:08:23;;;;;;;;;;;;;;;;;;5114813;28;19919;-75
2022/03/03 05:10:48;;;;;;;;;;;;;;;;;;5114669;28;19920;-75
2022/03/03 05:13:14;;;;;;;;;;;;;;;;;;5113970;28;19964;-75
2022/03/03 05:15:39;;;;;;;;;;;;;;;;;;5112362;28;19922;-76
2022/03/03 05:18:04;;;;;;;;;;;;;;;;;;5114641;28;19961;-75
2022/03/03 05:20:30;;;;;;;;;;;;;;;;;;5114488;28;20384;-75
2022/03/03 05:22:55;;;;;;;;;;;;;;;;;;5114355;28;19916;-75
2022/03/03 05:25:20;;;;;;;;;;;;;;;;;;5114160;28;19934;-77
2022/03/03 05:27:46;;;;;;;;;;;;;;;;;;5114745;28;19916;-77
2022/03/03 05:30:11;;;;;;;;;;;;;;;;;;5113917;28;19920;-76
2022/03/03 05:32:36;;;;;;;;;;;;;;;;;;5114424;28;20293;-75
2022/03/03 05:35:03;;;;;;;;;;;;;;;;;;5114342;28;19960;-76
2022/03/03 05:37:28;;;;;;;;;;;;;;;;;;5114485;28;19916;-75
2022/03/03 05:39:53;;;;;;;;;;;;;;;;;;5114236;28;20018;-75
2022/03/03 05:42:19;;;;;;;;;;;;;;;;;;5116832;28;19919;-79
2022/03/03 05:44:45;;;;;;;;;;;;;;;;;;5113251;27;19922;-76
2022/03/03 05:47:10;;;;;;;;;;;;;;;;;;5114327;28;19915;-76
2022/03/03 05:49:36;;;;;;;;;;;;;;;;;;5113803;28;19920;-74
2022/03/03 05:52:01;;;;;;;;;;;;;;;;;;5113916;28;19922;-75
2022/03/03 05:54:26;;;;;;;;;;;;;;;;;;5113762;28;19916;-75
2022/03/03 05:56:53;;;;;;;;;;;;;;;;;;5114445;28;20014;-77
2022/03/03 05:59:21;;;;;;;;;;;;;;;;;;5114132;28;19916;-76
2022/03/03 06:01:46;;;;;;;;;;;;;;;;;;5113796;28;19962;-77
2022/03/03 06:04:15;;;;;;;;;;;;;;;;;;5114846;28;19920;-77
2022/03/03 06:06:44;;;;;;;;;;;;;;;;;;5115046;28;19916;-78
2022/03/03 06:09:11;;;;;;;;;;;;;;;;;;5115205;28;20462;-78
2022/03/03 06:11:45;;;;;;;;;;;;;;;;;;5101590;28;19926;-79
2022/03/03 06:14:11;;;;;;;;;;;;;;;;;;5093764;28;19916;-79
2022/03/03 06:16:39;;;;;;;;;;;;;;;;;;5093573;28;19950;-78
2022/03/03 06:19:04;;;;;;;;;;;;;;;;;;5093940;28;19920;-78
2022/03/03 06:21:29;;;;;;;;;;;;;;;;;;5093746;28;19916;-78
2022/03/03 06:23:55;;;;;;;;;;;;;;;;;;5093581;28;19916;-78
2022/03/03 06:26:21;;;;;;;;;;;;;;;;;;5093508;28;20360;-78
2022/03/03 06:28:46;;;;;;;;;;;;;;;;;;5093446;28;20015;-78
2022/03/03 06:31:12;;;;;;;;;;;;;;;;;;5093713;28;20366;-78
2022/03/03 06:33:38;;;;;;;;;;;;;;;;;;5093865;28;19985;-76
2022/03/03 06:36:03;;;;;;;;;;;;;;;;;;5093651;28;19916;-79
2022/03/03 06:38:29;;;;;;;;;;;;;;;;;;5097548;28;19927;-78
2022/03/03 06:40:55;;;;;;;;;;;;;;;;;;5111795;27;19969;-78
2022/03/03 06:43:20;;;;;;;;;;;;;;;;;;5138534;27;19967;-78
2022/03/03 06:45:45;;;;;;;;;;;;;;;;;;5136573;27;19922;-78
2022/03/03 06:48:11;;;;;;;;;;;;;;;;;;5137390;27;19923;-78
2022/03/03 06:50:38;;;;;;;;;;;;;;;;;;5132052;27;19927;-79
2022/03/03 06:53:04;;;;;;;;;;;;;;;;;;5117553;28;19972;-79
2022/03/03 06:55:30;;;;;;;;;;;;;;;;;;5116315;28;19916;-78
2022/03/03 06:57:56;;;;;;;;;;;;;;;;;;5116148;27;19916;-78
2022/03/03 07:00:23;;;;;;;;;;;;;;;;;;5117355;28;19998;-78
2022/03/03 07:02:49;;;;;;;;;;;;;;;;;;5117687;28;19915;-78
2022/03/03 07:05:15;;;;;;;;;;;;;;;;;;5116113;28;19926;-78
2022/03/03 07:07:45;;;;;;;;;;;;;;;;;;5117312;28;19916;-78
2022/03/03 07:10:12;;;;;;;;;;;;;;;;;;5115979;28;19973;-78
2022/03/03 07:12:37;;;;;;;;;;;;;;;;;;5117298;28;19971;-78
2022/03/03 07:15:03;;;;;;;;;;;;;;;;;;5116088;28;19949;-78
2022/03/03 07:17:49;;;;;;;;;;;;;;;;;;5117242;28;19966;-78
2022/03/03 07:20:16;;;;;;;;;;;;;;;;;;5116957;28;20369;-78
2022/03/03 07:23:02;;;;;;;;;;;;;;;;;;5116958;28;19923;-78
2022/03/03 07:25:32;;;;;;;;;;;;;;;;;;5116186;28;19916;-78
2022/03/03 07:28:00;;;;;;;;;;;;;;;;;;5117017;28;19923;-78
2022/03/03 07:30:25;;;;;;;;;;;;;;;;;;5116309;28;19919;-78
2022/03/03 07:32:57;;;;;;;;;;;;;;;;;;5115279;28;19922;-78
2022/03/03 07:35:23;;;;;;;;;;;;;;;;;;5116773;28;19916;-78
2022/03/03 07:37:54;;;;;;;;;;;;;;;;;;5116714;28;19981;-78
2022/03/03 07:40:19;;;;;;;;;;;;;;;;;;5116714;28;19916;-78
2022/03/03 07:42:45;;;;;;;;;;;;;;;;;;5116356;28;19916;-78
2022/03/03 07:45:10;;;;;;;;;;;;;;;;;;5116168;28;19923;-75
2022/03/03 07:47:36;;;;;;;;;;;;;;;;;;5115548;28;19916;-76
2022/03/03 07:50:02;;;;;;;;;;;;;;;;;;5109769;28;20014;-77
2022/03/03 07:52:28;;;;;;;;;;;;;;;;;;5099903;27;19916;-76
2022/03/03 07:54:55;;;;;;;;;;;;;;;;;;5097749;28;19970;-78
2022/03/03 07:57:21;;;;;;;;;;;;;;;;;;5099531;28;19959;-78
2022/03/03 07:59:47;;;;;;;;;;;;;;;;;;5096635;28;19923;-78
2022/03/03 08:02:18;;;;;;;;;;;;;;;;;;5096965;28;19916;-78
2022/03/03 08:04:44;;;;;;;;;;;;;;;;;;5096416;28;19920;-78
2022/03/03 08:07:09;;;;;;;;;;;;;;;;;;5099502;28;19916;-78
2022/03/03 08:09:37;;;;;;;;;;;;;;;;;;5104310;27;19916;-76
2022/03/03 08:12:04;;;;;;;;;;;;;;;;;;5117138;28;20006;-78
2022/03/03 08:14:30;;;;;;;;;;;;;;;;;;5099110;28;19919;-78
2022/03/03 08:16:55;;;;;;;;;;;;;;;;;;5115630;28;19916;-78
2022/03/03 08:19:21;;;;;;;;;;;;;;;;;;5115780;28;19923;-78
2022/03/03 08:21:47;;;;;;;;;;;;;;;;;;5116583;28;19915;-77
2022/03/03 08:24:13;;;;;;;;;;;;;;;;;;5116751;28;19916;-78
2022/03/03 08:26:39;;;;;;;;;;;;;;;;;;5116764;28;19922;-77
2022/03/03 08:29:04;;;;;;;;;;;;;;;;;;5115623;28;19996;-77
2022/03/03 08:31:37;;;;;;;;;;;;;;;;;;5097023;28;20055;-78
2022/03/03 08:34:10;;;;;;;;;;;;;;;;;;5117408;28;19939;-78
2022/03/03 08:36:54;;;;;;;;;;;;;;;;;;5112671;28;19979;-78
2022/03/03 08:39:23;;;;;;;;;;;;;;;;;;5103190;28;19920;-87
2022/03/03 08:41:51;;;;;;;;;;;;;;;;;;5082456;28;19916;-85
2022/03/03 08:44:18;;;;;;;;;;;;;;;;;;5098357;28;20318;-86
2022/03/03 08:46:44;;;;;;;;;;;;;;;;;;5098598;28;19916;-86
2022/03/03 08:49:11;;;;;;;;;;;;;;;;;;5099961;28;20382;-85
2022/03/03 08:51:37;;;;;;;;;;;;;;;;;;5098452;28;20362;-87
2022/03/03 08:54:03;;;;;;;;;;;;;;;;;;5096299;28;20292;-85
2022/03/03 08:56:28;;;;;;;;;;;;;;;;;;5089321;28;19963;-84
2022/03/03 08:58:54;;;;;;;;;;;;;;;;;;5121046;27;20358;-86
2022/03/03 09:01:19;;;;;;;;;;;;;;;;;;5109379;28;19920;-85
2022/03/03 09:03:47;;;;;;;;;;;;;;;;;;5122745;28;20367;-88
2022/03/03 09:06:16;;;;;;;;;;;;;;;;;;5104659;28;19926;-86
2022/03/03 09:08:41;;;;;;;;;;;;;;;;;;5097506;28;19916;-85
2022/03/03 09:11:07;;;;;;;;;;;;;;;;;;5140756;27;19922;-86
2022/03/03 09:13:32;;;;;;;;;;;;;;;;;;5139255;27;19947;-84
2022/03/03 09:15:58;;;;;;;;;;;;;;;;;;5141517;27;19916;-86
2022/03/03 09:18:23;;;;;;;;;;;;;;;;;;5100473;28;20006;-86
2022/03/03 09:20:49;;;;;;;;;;;;;;;;;;5095981;28;19920;-87
2022/03/03 09:23:14;;;;;;;;;;;;;;;;;;5096729;28;19920;-80
2022/03/03 09:25:41;;;;;;;;;;;;;;;;;;5114697;28;20313;-81
2022/03/03 09:28:06;;;;;;;;;;;;;;;;;;5109569;28;19916;-77
2022/03/03 09:30:32;;;;;;;;;;;;;;;;;;5099187;28;19916;-83
2022/03/03 09:32:57;;;;;;;;;;;;;;;;;;5099256;28;19916;-83
2022/03/03 09:35:23;;;;;;;;;;;;;;;;;;5101440;28;19916;-79
2022/03/03 09:37:48;;;;;;;;;;;;;;;;;;5100604;28;19919;-79
2022/03/03 09:40:13;;;;;;;;;;;;;;;;;;5101293;28;19931;-79
2022/03/03 09:42:39;;;;;;;;;;;;;;;;;;5099684;28;20317;-78
2022/03/03 09:45:05;;;;;;;;;;;;;;;;;;5102526;28;20402;-79
2022/03/03 09:47:33;;;;;;;;;;;;;;;;;;5128642;27;19915;-79
2022/03/03 09:49:59;;;;;;;;;;;;;;;;;;5141173;27;20385;-80
2022/03/03 09:52:24;;;;;;;;;;;;;;;;;;5138236;27;19926;-78
2022/03/03 09:54:51;;;;;;;;;;;;;;;;;;5118805;27;19916;-77
2022/03/03 09:57:17;;;;;;;;;;;;;;;;;;5120419;28;19916;-78
2022/03/03 09:59:45;;;;;;;;;;;;;;;;;;5120027;28;19920;-82
2022/03/03 10:02:10;;;;;;;;;;;;;;;;;;5084768;28;19916;-81
2022/03/03 10:04:36;;;;;;;;;;;;;;;;;;5101944;28;19923;-82
2022/03/03 10:07:03;;;;;;;;;;;;;;;;;;5100158;28;19923;-81
2022/03/03 10:09:28;;;;;;;;;;;;;;;;;;5101693;28;19939;-85
2022/03/03 10:12:21;;;;;;;;;;;;;;;;;;5098894;28;20413;-78
2022/03/03 10:14:48;;;;;;;;;;;;;;;;;;5100228;28;19916;-79
2022/03/03 10:17:14;;;;;;;;;;;;;;;;;;5105047;28;19939;-78
2022/03/03 10:19:52;;;;;;;;;;;;;;;;;;5102611;28;19920;-84
2022/03/03 10:22:17;;;;;;;;;;;;;;;;;;5102307;28;20333;-81
2022/03/03 10:24:43;;;;;;;;;;;;;;;;;;5104688;28;19916;-82
2022/03/03 10:27:09;;;;;;;;;;;;;;;;;;5116754;27;19987;-84
2022/03/03 10:29:35;;;;;;;;;;;;;;;;;;5122686;27;19927;-81
2022/03/03 10:32:02;;;;;;;;;;;;;;;;;;5122452;28;19916;-80
2022/03/03 10:34:32;;;;;;;;;;;;;;;;;;5119017;28;19961;-82
2022/03/03 10:37:08;;;;;;;;;;;;;;;;;;5118288;28;19916;-80
2022/03/03 10:39:38;;;;;;;;;;;;;;;;;;5101434;28;19971;-79
2022/03/03 10:42:11;;;;;;;;;;;;;;;;;;5119910;28;19916;-80
2022/03/03 10:44:36;;;;;;;;;;;;;;;;;;5121322;28;20278;-78
2022/03/03 10:47:04;;;;;;;;;;;;;;;;;;5121864;28;19923;-81
2022/03/03 10:49:30;;;;;;;;;;;;;;;;;;5124377;28;19920;-81
2022/03/03 10:52:08;;;;;;;;;;;;;;;;;;5124090;28;19922;-81
2022/03/03 10:54:33;;;;;;;;;;;;;;;;;;5122896;27;20361;-83
2022/03/03 10:56:59;;;;;;;;;;;;;;;;;;5123440;27;19923;-84
2022/03/03 10:59:25;;;;;;;;;;;;;;;;;;5127375;27;19937;-87
2022/03/03 11:01:51;;;;;;;;;;;;;;;;;;5107570;28;19916;-81
2022/03/03 11:04:21;;;;;;;;;;;;;;;;;;5121926;28;19923;-80
2022/03/03 11:06:49;;;;;;;;;;;;;;;;;;5123154;28;20277;-84
2022/03/03 11:09:15;;;;;;;;;;;;;;;;;;5123961;28;19919;-84
2022/03/03 11:11:40;;;;;;;;;;;;;;;;;;5123216;28;20392;-81
2022/03/03 11:14:05;;;;;;;;;;;;;;;;;;5135564;27;19916;-83
2022/03/03 11:16:31;;;;;;;;;;;;;;;;;;5142931;27;19915;-78
2022/03/03 11:18:57;;;;;;;;;;;;;;;;;;5135809;27;20369;-77
2022/03/03 11:21:23;;;;;;;;;;;;;;;;;;5117060;28;19927;-76
2022/03/03 11:23:58;;;;;;;;;;;;;;;;;;5115915;28;20363;-76
2022/03/03 11:26:28;;;;;;;;;;;;;;;;;;5115595;28;19922;-76
2022/03/03 11:28:58;;;;;;;;;;;;;;;;;;5116955;28;20002;-76
2022/03/03 11:31:26;;;;;;;;;;;;;;;;;;5117410;28;19915;-78
2022/03/03 11:34:12;;;;;;;;;;;;;;;;;;5121238;28;19938;-79
2022/03/03 11:36:45;;;;;;;;;;;;;;;;;;5121144;28;20428;-79
2022/03/03 11:39:10;;;;;;;;;;;;;;;;;;5120977;28;19916;-79
2022/03/03 11:41:48;;;;;;;;;;;;;;;;;;5100787;28;19920;-77
2022/03/03 11:44:17;;;;;;;;;;;;;;;;;;5096215;28;19916;-76
2022/03/03 11:46:43;;;;;;;;;;;;;;;;;;5127292;27;20674;-79
2022/03/03 11:49:18;;;;;;;;;;;;;;;;;;5111371;28;19916;-79
2022/03/03 11:51:50;;;;;;;;;;;;;;;;;;5101170;28;20002;-79
2022/03/03 11:54:27;;;;;;;;;;;;;;;;;;5099492;28;19916;-78
2022/03/03 11:57:07;;;;;;;;;;;;;;;;;;5099653;28;20015;-78
2022/03/03 11:59:34;;;;;;;;;;;;;;;;;;5106178;28;20380;-79
2022/03/03 12:02:00;;;;;;;;;;;;;;;;;;5122362;28;20015;-78
2022/03/03 12:04:26;;;;;;;;;;;;;;;;;;5120043;28;19915;-78
2022/03/03 12:06:54;;;;;;;;;;;;;;;;;;5118672;28;19923;-79
2022/03/03 12:09:26;;;;;;;;;;;;;;;;;;5117985;28;19920;-78
2022/03/03 12:12:10;;;;;;;;;;;;;;;;;;5112370;28;20286;-78
2022/03/03 12:14:39;;;;;;;;;;;;;;;;;;5106049;28;19915;-78
2022/03/03 12:17:24;;;;;;;;;;;;;;;;;;5101855;28;19955;-84
2022/03/03 12:19:52;;;;;;;;;;;;;;;;;;5115653;28;19920;-83
2022/03/03 12:22:26;;;;;;;;;;;;;;;;;;5114622;27;19984;-86
2022/03/03 12:24:52;;;;;;;;;;;;;;;;;;5121551;28;19922;-82
2022/03/03 12:27:18;;;;;;;;;;;;;;;;;;5108500;28;19917;-86
2022/03/03 12:29:48;;;;;;;;;;;;;;;;;;5083444;28;20018;-85
2022/03/03 12:32:27;;;;;;;;;;;;;;;;;;5094712;28;19959;-87
2022/03/03 12:34:53;;;;;;;;;;;;;;;;;;5105617;28;19916;-82
2022/03/03 12:37:18;;;;;;;;;;;;;;;;;;5105058;28;19922;-81
2022/03/03 12:39:47;;;;;;;;;;;;;;;;;;5110544;28;20343;-79
2022/03/03 12:42:16;;;;;;;;;;;;;;;;;;5123130;28;19915;-83
2022/03/03 12:44:41;;;;;;;;;;;;;;;;;;5122469;28;19937;-86
2022/03/03 12:47:07;;;;;;;;;;;;;;;;;;5118200;28;19919;-81
2022/03/03 12:49:38;;;;;;;;;;;;;;;;;;5100836;28;19924;-80
2022/03/03 12:52:04;;;;;;;;;;;;;;;;;;5120979;28;19923;-80
2022/03/03 12:54:30;;;;;;;;;;;;;;;;;;5121471;28;20323;-80
2022/03/03 12:56:59;;;;;;;;;;;;;;;;;;5119216;28;20262;-80
2022/03/03 12:59:25;;;;;;;;;;;;;;;;;;5118215;28;19964;-80
2022/03/03 13:01:50;;;;;;;;;;;;;;;;;;5119553;28;20543;-79
2022/03/03 13:04:16;;;;;;;;;;;;;;;;;;5120047;28;19947;-80
2022/03/03 13:06:42;;;;;;;;;;;;;;;;;;5112030;28;20357;-79
2022/03/03 13:09:07;;;;;;;;;;;;;;;;;;5103501;28;19923;-81
2022/03/03 13:11:33;;;;;;;;;;;;;;;;;;5114310;28;19920;-84
2022/03/03 13:14:06;;;;;;;;;;;;;;;;;;5107519;28;20396;-82
2022/03/03 13:16:32;;;;;;;;;;;;;;;;;;5112324;28;19923;-83
2022/03/03 13:19:00;;;;;;;;;;;;;;;;;;5104504;28;19916;-82
2022/03/03 13:21:29;;;;;;;;;;;;;;;;;;5100485;28;19927;-87
2022/03/03 13:23:56;;;;;;;;;;;;;;;;;;5108933;28;19920;-84
2022/03/03 13:26:22;;;;;;;;;;;;;;;;;;5114670;27;19924;-83
2022/03/03 13:28:56;;;;;;;;;;;;;;;;;;5147014;27;19915;-84
2022/03/03 13:31:25;;;;;;;;;;;;;;;;;;5147124;27;19919;-84
2022/03/03 13:33:52;;;;;;;;;;;;;;;;;;5134562;27;19912;-83
2022/03/03 13:36:19;;;;;;;;;;;;;;;;;;5126157;28;19916;-84
2022/03/03 13:38:44;;;;;;;;;;;;;;;;;;5121181;28;19915;-84
2022/03/03 13:41:24;;;;;;;;;;;;;;;;;;5123671;28;20457;-81
2022/03/03 13:43:50;;;;;;;;;;;;;;;;;;5130388;27;20381;-79
2022/03/03 13:46:42;;;;;;;;;;;;;;;;;;5139615;27;19923;-80
2022/03/03 13:49:17;;;;;;;;;;;;;;;;;;5126490;27;19920;-81
2022/03/03 13:52:01;;;;;;;;;;;;;;;;;;5097957;28;19923;-81
2022/03/03 13:54:27;;;;;;;;;;;;;;;;;;5098208;28;19916;-81
2022/03/03 13:56:52;;;;;;;;;;;;;;;;;;5097718;28;20373;-81
2022/03/03 13:59:17;;;;;;;;;;;;;;;;;;5097522;28;19923;-80
2022/03/03 14:01:44;;;;;;;;;;;;;;;;;;5099507;28;19927;-81
2022/03/03 14:04:10;;;;;;;;;;;;;;;;;;5128932;28;19996;-80
2022/03/03 14:06:39;;;;;;;;;;;;;;;;;;5138945;27;19922;-79
2022/03/03 14:09:05;;;;;;;;;;;;;;;;;;5139581;27;20010;-79
2022/03/03 14:11:30;;;;;;;;;;;;;;;;;;5138685;27;20347;-79
2022/03/03 14:13:57;;;;;;;;;;;;;;;;;;5138712;27;19983;-80
2022/03/03 14:16:35;;;;;;;;;;;;;;;;;;5102421;27;19963;-79
2022/03/03 14:19:00;;;;;;;;;;;;;;;;;;5097002;28;19923;-79
2022/03/03 14:21:25;;;;;;;;;;;;;;;;;;5100683;28;19920;-79
2022/03/03 14:23:51;;;;;;;;;;;;;;;;;;5098300;28;20290;-82
2022/03/03 14:26:17;;;;;;;;;;;;;;;;;;5095773;28;19964;-82
2022/03/03 14:28:44;;;;;;;;;;;;;;;;;;5098429;28;19923;-80
2022/03/03 14:31:10;;;;;;;;;;;;;;;;;;5097750;28;19916;-82
2022/03/03 14:33:37;;;;;;;;;;;;;;;;;;5097518;28;20004;-81
2022/03/03 14:36:04;;;;;;;;;;;;;;;;;;5096096;28;19951;-80
2022/03/03 14:38:29;;;;;;;;;;;;;;;;;;5112395;28;20289;-80
2022/03/03 14:40:54;;;;;;;;;;;;;;;;;;5116975;28;19924;-80
2022/03/03 14:43:20;;;;;;;;;;;;;;;;;;5116518;28;20064;-80
2022/03/03 14:45:46;;;;;;;;;;;;;;;;;;5117532;28;19915;-82
2022/03/03 14:48:11;;;;;;;;;;;;;;;;;;5124188;28;19923;-82
2022/03/03 14:50:37;;;;;;;;;;;;;;;;;;5121928;28;19920;-81
2022/03/03 14:53:03;;;;;;;;;;;;;;;;;;5125353;28;19916;-82
2022/03/03 14:55:29;;;;;;;;;;;;;;;;;;5103609;28;20010;-81
2022/03/03 14:57:54;;;;;;;;;;;;;;;;;;5122996;28;19927;-81
2022/03/03 15:00:20;;;;;;;;;;;;;;;;;;5125866;28;19924;-81
2022/03/03 15:02:47;;;;;;;;;;;;;;;;;;5125186;28;19922;-82
2022/03/03 15:05:14;;;;;;;;;;;;;;;;;;5105480;28;19923;-82
2022/03/03 15:07:39;;;;;;;;;;;;;;;;;;5120630;28;20292;-81
2022/03/03 15:10:05;;;;;;;;;;;;;;;;;;5122191;28;20002;-81
2022/03/03 15:12:30;;;;;;;;;;;;;;;;;;5121906;28;19916;-80
2022/03/03 15:14:55;;;;;;;;;;;;;;;;;;5123054;28;19979;-80
2022/03/03 15:17:21;;;;;;;;;;;;;;;;;;5126231;27;19916;-84
2022/03/03 15:19:47;;;;;;;;;;;;;;;;;;5124713;28;19915;-80
2022/03/03 15:22:12;;;;;;;;;;;;;;;;;;5126729;28;19960;-81
2022/03/03 15:24:38;;;;;;;;;;;;;;;;;;5128064;28;20292;-81
2022/03/03 15:27:09;;;;;;;;;;;;;;;;;;5129963;28;19916;-80
2022/03/03 15:29:37;;;;;;;;;;;;;;;;;;5130914;28;19916;-80
2022/03/03 15:32:03;;;;;;;;;;;;;;;;;;5125987;28;19912;-80
2022/03/03 15:37:12;;;;;;;;;;;;;;;;;;5102749;28;20019;-80
2022/03/03 15:39:37;;;;;;;;;;;;;;;;;;5112908;28;19959;-81
2022/03/03 15:42:05;;;;;;;;;;;;;;;;;;5121514;28;19927;-81
2022/03/03 15:44:31;;;;;;;;;;;;;;;;;;5118075;28;20425;-80
2022/03/03 15:46:57;;;;;;;;;;;;;;;;;;5108663;28;19916;-80
2022/03/03 15:49:23;;;;;;;;;;;;;;;;;;5107694;28;19916;-80
2022/03/03 15:51:49;;;;;;;;;;;;;;;;;;5110374;28;19947;-80
2022/03/03 15:54:17;;;;;;;;;;;;;;;;;;5126666;28;19920;-79
2022/03/03 15:56:42;;;;;;;;;;;;;;;;;;5127596;27;19915;-80
2022/03/03 15:59:08;;;;;;;;;;;;;;;;;;5130668;28;19923;-79
2022/03/03 16:01:33;;;;;;;;;;;;;;;;;;5131276;28;19943;-81
2022/03/03 16:04:04;;;;;;;;;;;;;;;;;;5131760;28;19947;-80
2022/03/03 16:06:30;;;;;;;;;;;;;;;;;;5131564;27;19916;-80
2022/03/03 16:08:56;;;;;;;;;;;;;;;;;;5130496;28;19955;-80
2022/03/03 16:11:21;;;;;;;;;;;;;;;;;;5131881;28;19945;-80
2022/03/03 16:13:52;;;;;;;;;;;;;;;;;;5132182;28;19975;-80
2022/03/03 16:16:18;;;;;;;;;;;;;;;;;;5129150;28;19899;-80
2022/03/03 16:18:44;;;;;;;;;;;;;;;;;;5130200;28;19979;-80
2022/03/03 16:21:10;;;;;;;;;;;;;;;;;;5131253;28;19926;-80
2022/03/03 16:23:35;;;;;;;;;;;;;;;;;;5131629;28;19920;-79
2022/03/03 16:26:01;;;;;;;;;;;;;;;;;;5130332;28;19938;-80
2022/03/03 16:28:26;;;;;;;;;;;;;;;;;;5132359;28;19916;-80
2022/03/03 16:30:52;;;;;;;;;;;;;;;;;;5132559;27;19918;-80
2022/03/03 16:33:17;;;;;;;;;;;;;;;;;;5130807;28;19916;-80
2022/03/03 16:35:43;;;;;;;;;;;;;;;;;;5129897;27;19923;-80
2022/03/03 16:38:09;;;;;;;;;;;;;;;;;;5131242;28;19919;-80
2022/03/03 16:40:34;;;;;;;;;;;;;;;;;;5130000;28;19920;-81
2022/03/03 16:43:02;;;;;;;;;;;;;;;;;;5129241;28;19915;-80
2022/03/03 16:45:27;;;;;;;;;;;;;;;;;;5127711;27;19922;-80
2022/03/03 16:47:55;;;;;;;;;;;;;;;;;;5104905;28;20026;-80
2022/03/03 16:50:21;;;;;;;;;;;;;;;;;;5108307;28;19920;-80